createdAt,value
2023-01-03T00:04:29.930Z,12.07
2023-01-03T00:09:31.869Z,11.98
2023-01-03T00:14:37.395Z,11.89
2023-01-03T00:19:44.255Z,11.89
2023-01-03T00:24:47.999Z,11.88
2023-01-03T00:29:50.085Z,11.81
2023-01-03T00:34:51.923Z,11.78
2023-01-03T00:39:53.895Z,11.66
2023-01-03T00:44:55.759Z,11.60
2023-01-03T00:49:57.555Z,11.52
2023-01-03T00:54:59.324Z,11.61
2023-01-03T01:00:01.138Z,11.56
2023-01-03T01:05:03.141Z,11.43
2023-01-03T01:10:05.360Z,11.36
2023-01-03T01:15:07.697Z,11.27
2023-01-03T01:20:09.854Z,11.19
2023-01-03T01:25:11.660Z,11.11
2023-01-03T01:30:13.748Z,11.06
2023-01-03T01:35:15.615Z,11.11
2023-01-03T01:40:19.103Z,11.19
2023-01-03T01:45:20.965Z,11.11
2023-01-03T01:50:33.268Z,11.12
2023-01-03T01:55:45.272Z,11.17
2023-01-03T02:00:47.182Z,11.15
2023-01-03T02:05:53.836Z,11.16
2023-01-03T02:11:14.367Z,11.06
2023-01-03T02:16:23.874Z,11.06
2023-01-03T02:21:49.750Z,11.04
2023-01-03T02:27:19.074Z,11.02
2023-01-03T02:32:45.179Z,11.02
2023-01-03T02:37:46.970Z,10.93
2023-01-03T02:43:07.808Z,10.92
2023-01-03T02:48:13.794Z,10.95
2023-01-03T02:53:26.010Z,10.97
2023-01-03T02:58:32.091Z,10.95
2023-01-03T03:03:38.310Z,10.97
2023-01-03T03:08:40.457Z,10.99
2023-01-03T03:13:53.072Z,11.01
2023-01-03T03:19:03.382Z,10.94
2023-01-03T03:24:48.151Z,10.89
2023-01-03T03:29:52.375Z,10.80
2023-01-03T03:34:58.062Z,10.81
2023-01-03T03:40:18.426Z,10.84
2023-01-03T03:45:26.909Z,10.85
2023-01-03T03:50:43.151Z,10.82
2023-01-03T03:55:48.824Z,10.78
2023-01-03T04:00:52.219Z,10.77
2023-01-03T04:06:02.363Z,10.78
2023-01-03T04:11:07.277Z,10.78
2023-01-03T04:16:09.239Z,10.71
2023-01-03T04:21:14.313Z,10.72
2023-01-03T04:26:20.779Z,10.77
2023-01-03T04:31:22.658Z,10.79
2023-01-03T04:36:24.620Z,10.80
2023-01-03T04:41:26.546Z,10.78
2023-01-03T04:46:33.321Z,10.77
2023-01-03T04:51:36.223Z,10.81
2023-01-03T04:56:38.530Z,10.81
2023-01-03T05:01:52.275Z,10.75
2023-01-03T05:06:55.704Z,10.70
2023-01-03T05:11:57.557Z,10.70
2023-01-03T05:16:59.598Z,10.69
2023-01-03T05:22:21.807Z,10.72
2023-01-03T05:27:24.175Z,10.78
2023-01-03T05:32:27.803Z,10.84
2023-01-03T05:37:29.609Z,10.78
2023-01-03T05:42:31.434Z,10.81
2023-01-03T05:47:33.712Z,10.80
2023-01-03T05:52:35.548Z,10.81
2023-01-03T05:57:37.827Z,10.77
2023-01-03T06:02:39.881Z,10.72
2023-01-03T06:07:41.828Z,10.74
2023-01-03T06:12:43.716Z,10.74
2023-01-03T06:18:02.744Z,10.80
2023-01-03T06:23:04.680Z,10.75
2023-01-03T06:28:06.537Z,10.72
2023-01-03T06:33:08.497Z,10.64
2023-01-03T06:38:10.344Z,10.63
2023-01-03T06:43:12.142Z,10.68
2023-01-03T06:48:32.989Z,10.70
2023-01-03T06:53:39.653Z,10.65
2023-01-03T06:58:41.469Z,10.69
2023-01-03T07:03:44.083Z,10.70
2023-01-03T07:08:48.481Z,10.74
2023-01-03T07:14:00.041Z,10.72
2023-01-03T07:19:02.954Z,10.73
2023-01-03T07:24:06.836Z,10.71
2023-01-03T07:29:10.912Z,10.60
2023-01-03T07:34:12.784Z,10.55
2023-01-03T07:39:14.712Z,10.44
2023-01-03T07:44:16.609Z,10.40
2023-01-03T07:49:18.460Z,10.39
2023-01-03T07:54:20.277Z,10.36
2023-01-03T07:59:22.229Z,10.34
2023-01-03T08:04:24.176Z,10.35
2023-01-03T08:09:45.007Z,10.36
2023-01-03T08:14:46.874Z,10.28
2023-01-03T08:19:48.690Z,10.42
2023-01-03T08:24:50.509Z,10.60
2023-01-03T08:29:52.379Z,10.73
2023-01-03T08:34:54.819Z,10.90
2023-01-03T08:40:02.160Z,11.27
2023-01-03T08:45:08.867Z,11.61
2023-01-03T08:50:11.945Z,11.72
2023-01-03T08:55:13.846Z,11.74
2023-01-03T09:00:15.925Z,11.87
2023-01-03T09:05:17.925Z,12.02
2023-01-03T09:10:19.925Z,11.93
2023-01-03T09:15:21.841Z,11.97
2023-01-03T09:20:23.799Z,11.96
2023-01-03T09:25:25.635Z,11.71
2023-01-03T09:30:27.476Z,11.88
2023-01-03T09:35:29.357Z,12.10
2023-01-03T09:40:32.992Z,12.32
2023-01-03T09:45:35.420Z,12.18
2023-01-03T09:51:14.147Z,12.31
2023-01-03T09:56:19.585Z,12.10
2023-01-03T10:01:52.128Z,11.91
2023-01-03T10:07:15.733Z,11.75
2023-01-03T10:12:35.681Z,11.78
2023-01-03T10:17:51.966Z,11.69
2023-01-03T10:22:56.250Z,11.73
2023-01-03T10:28:17.546Z,11.87
2023-01-03T10:33:33.167Z,11.87
2023-01-03T10:38:43.548Z,11.84
2023-01-03T10:44:02.970Z,11.79
2023-01-03T10:49:28.321Z,11.79
2023-01-03T10:54:54.835Z,11.81
2023-01-03T10:59:56.695Z,11.80
2023-01-03T11:05:17.315Z,11.73
2023-01-03T11:10:19.284Z,11.83
2023-01-03T11:15:25.598Z,11.81
2023-01-03T11:20:43.887Z,11.76
2023-01-03T11:26:00.449Z,11.86
2023-01-03T11:31:20.253Z,11.83
2023-01-03T11:36:51.141Z,11.86
2023-01-03T11:42:10.936Z,11.72
2023-01-03T11:47:38.293Z,11.90
2023-01-03T11:53:02.586Z,11.82
2023-01-03T11:58:43.109Z,11.76
2023-01-03T12:04:08.395Z,11.68
2023-01-03T12:09:19.321Z,11.66
2023-01-03T12:14:46.560Z,11.64
2023-01-03T12:20:00.768Z,11.59
2023-01-03T12:25:42.359Z,11.58
2023-01-03T12:31:02.738Z,11.65
2023-01-03T12:36:10.392Z,11.66
2023-01-03T12:41:31.598Z,11.73
2023-01-03T12:46:38.481Z,11.73
2023-01-03T12:51:40.530Z,12.02
2023-01-03T12:57:11.269Z,12.12
2023-01-03T13:02:21.194Z,14.47
2023-01-03T13:07:28.385Z,15.72
2023-01-03T13:12:35.121Z,14.28
2023-01-03T13:17:46.115Z,13.47
2023-01-03T13:22:53.646Z,12.80
2023-01-03T13:28:01.114Z,12.90
2023-01-03T13:33:11.920Z,14.60
2023-01-03T13:38:35.954Z,14.55
2023-01-03T13:43:40.211Z,13.97
2023-01-03T13:48:53.933Z,13.05
2023-01-03T13:54:04.532Z,12.54
2023-01-03T13:59:15.505Z,12.08
2023-01-03T14:04:51.265Z,11.91
2023-01-03T14:10:01.612Z,11.70
2023-01-03T14:15:25.273Z,11.64
2023-01-03T14:20:32.463Z,11.56
2023-01-03T14:25:40.278Z,11.54
2023-01-03T14:30:43.492Z,11.46
2023-01-03T14:35:45.801Z,11.32
2023-01-03T14:40:48.489Z,11.30
2023-01-03T14:45:54.727Z,11.21
2023-01-03T14:51:00.248Z,11.04
2023-01-03T14:56:03.238Z,10.84
2023-01-03T15:01:08.072Z,10.73
2023-01-03T15:06:31.218Z,10.74
2023-01-03T15:11:57.410Z,10.73
2023-01-03T15:17:13.477Z,10.74
2023-01-03T15:22:20.660Z,10.70
2023-01-03T15:27:38.926Z,10.58
2023-01-03T15:32:52.513Z,10.38
2023-01-03T15:37:54.841Z,10.26
2023-01-03T15:43:19.645Z,10.25
2023-01-03T15:48:22.295Z,10.24
2023-01-03T15:53:41.243Z,10.20
2023-01-03T15:58:52.035Z,10.13
2023-01-03T16:03:54.183Z,10.05
2023-01-03T16:08:56.167Z,10.03
2023-01-03T16:14:01.047Z,10.14
2023-01-03T16:19:05.408Z,10.14
2023-01-03T16:24:07.336Z,10.19
2023-01-03T16:29:09.206Z,10.17
2023-01-03T16:34:19.872Z,10.11
2023-01-03T16:39:26.701Z,10.08
2023-01-03T16:44:28.499Z,9.95
2023-01-03T16:49:34.497Z,10.04
2023-01-03T16:54:36.473Z,9.94
2023-01-03T16:59:38.380Z,9.92
2023-01-03T17:04:40.953Z,9.78
2023-01-03T17:09:42.800Z,9.66
2023-01-03T17:14:44.695Z,9.63
2023-01-03T17:20:04.784Z,9.45
2023-01-03T17:25:11.375Z,9.24
2023-01-03T17:30:18.940Z,9.11
2023-01-03T17:35:20.987Z,9.11
2023-01-03T17:40:33.184Z,9.02
2023-01-03T17:45:54.542Z,8.92
2023-01-03T17:50:57.161Z,8.76
2023-01-03T17:55:59.272Z,8.76
2023-01-03T18:01:01.482Z,8.78
2023-01-03T18:06:15.040Z,8.85
2023-01-03T18:11:19.598Z,8.98
2023-01-03T18:16:22.975Z,8.94
2023-01-03T18:21:28.164Z,8.97
2023-01-03T18:26:34.933Z,8.81
2023-01-03T18:31:37.222Z,8.78
2023-01-03T18:36:45.483Z,8.70
2023-01-03T18:41:47.701Z,8.72
2023-01-03T18:46:51.561Z,8.75
2023-01-03T18:51:54.220Z,8.68
2023-01-03T18:56:56.719Z,8.58
2023-01-03T19:01:59.620Z,8.60
2023-01-03T19:07:02.025Z,8.53
2023-01-03T19:12:04.160Z,8.45
2023-01-03T19:17:12.134Z,8.47
2023-01-03T19:22:27.158Z,8.53
2023-01-03T19:27:40.664Z,8.56
2023-01-03T19:32:45.401Z,8.65
2023-01-03T19:37:47.764Z,8.71
2023-01-03T19:42:52.109Z,8.62
2023-01-03T19:47:58.761Z,8.53
2023-01-03T19:53:04.578Z,8.42
2023-01-03T19:58:20.279Z,8.23
2023-01-03T20:03:25.467Z,8.16
2023-01-03T20:08:28.682Z,8.16
2023-01-03T20:13:32.427Z,8.15
2023-01-03T20:18:36.988Z,8.08
2023-01-03T20:23:46.804Z,8.14
2023-01-03T20:28:49.087Z,8.26
2023-01-03T20:33:52.290Z,8.36
2023-01-03T20:38:58.330Z,8.44
2023-01-03T20:44:00.187Z,8.51
2023-01-03T20:49:03.638Z,8.53
2023-01-03T20:54:05.602Z,8.61
2023-01-03T20:59:07.728Z,8.63
2023-01-03T21:04:12.055Z,8.73
2023-01-03T21:09:14.410Z,8.77
2023-01-03T21:14:16.273Z,8.70
2023-01-03T21:19:23.779Z,8.81
2023-01-03T21:24:25.756Z,8.87
2023-01-03T21:29:27.939Z,8.79
2023-01-03T21:34:30.726Z,8.93
2023-01-03T21:39:32.623Z,8.92
2023-01-03T21:44:34.522Z,8.88
2023-01-03T21:49:36.337Z,8.90
2023-01-03T21:54:38.164Z,8.87
2023-01-03T21:59:40.061Z,8.77
2023-01-03T22:04:41.933Z,8.72
2023-01-03T22:10:02.259Z,8.70
2023-01-03T22:15:04.644Z,8.74
2023-01-03T22:20:08.964Z,8.71
2023-01-03T22:25:13.172Z,8.72
2023-01-03T22:30:19.934Z,8.75
2023-01-03T22:35:21.794Z,8.87
2023-01-03T22:40:23.605Z,8.88
2023-01-03T22:45:25.524Z,8.85
2023-01-03T22:50:27.418Z,8.81
2023-01-03T22:55:32.220Z,8.76
2023-01-03T23:00:34.358Z,8.76
2023-01-03T23:05:36.202Z,8.69
2023-01-03T23:10:38.030Z,8.61
2023-01-03T23:15:39.849Z,8.50
2023-01-03T23:20:48.827Z,8.46
2023-01-03T23:25:50.717Z,8.44
2023-01-03T23:30:52.561Z,8.43
2023-01-03T23:35:54.432Z,8.46
2023-01-03T23:40:56.257Z,8.43
2023-01-03T23:45:58.744Z,8.40
2023-01-03T23:51:07.899Z,8.38
2023-01-03T23:56:13.435Z,8.37
